createdAt,value
2022-12-14T00:01:50.194Z,15.43
2022-12-14T00:04:16.935Z,17.27
2022-12-14T00:06:43.781Z,18.63
2022-12-14T00:09:14.038Z,19.80
2022-12-14T00:11:46.285Z,18.30
2022-12-14T00:14:13.062Z,17.67
2022-12-14T00:16:45.469Z,17.13
2022-12-14T00:19:12.280Z,16.98
2022-12-14T00:21:42.120Z,19.42
2022-12-14T00:24:09.860Z,17.25
2022-12-14T00:26:38.570Z,17.65
2022-12-14T00:29:11.080Z,19.20
2022-12-14T00:31:37.838Z,18.15
2022-12-14T00:34:04.550Z,15.43
2022-12-14T00:36:35.794Z,16.95
2022-12-14T00:39:04.004Z,19.42
2022-12-14T00:41:30.580Z,18.25
2022-12-14T00:43:57.353Z,17.75
2022-12-14T00:46:26.058Z,18.42
2022-12-14T00:48:52.777Z,20.67
2022-12-14T00:51:24.576Z,19.55
2022-12-14T00:53:51.389Z,15.63
2022-12-14T00:56:19.422Z,14.35
2022-12-14T00:58:53.545Z,17.15
2022-12-14T01:01:21.803Z,17.98
2022-12-14T01:04:13.604Z,17.42
2022-12-14T01:06:40.384Z,14.75
2022-12-14T01:09:06.996Z,16.67
2022-12-14T01:11:35.927Z,16.05
2022-12-14T01:14:03.028Z,16.65
2022-12-14T01:16:29.713Z,18.00
2022-12-14T01:18:57.948Z,12.93
2022-12-14T01:21:25.139Z,17.70
2022-12-14T01:23:54.889Z,17.63
2022-12-14T01:26:23.521Z,20.75
2022-12-14T01:28:53.092Z,17.42
2022-12-14T01:31:21.682Z,13.65
2022-12-14T01:33:50.882Z,17.20
2022-12-14T01:36:22.485Z,26.50
2022-12-14T01:38:57.163Z,15.48
2022-12-14T01:41:28.579Z,19.88
2022-12-14T01:44:00.416Z,12.93
2022-12-14T01:46:41.645Z,15.65
2022-12-14T01:49:25.286Z,13.55
2022-12-14T01:51:59.810Z,16.17
2022-12-14T01:54:32.390Z,19.48
2022-12-14T02:03:02.820Z,17.63
2022-12-14T02:05:33.188Z,16.75
2022-12-14T02:08:00.146Z,15.55
2022-12-14T02:10:29.762Z,17.77
2022-12-14T02:13:08.262Z,18.75
2022-12-14T02:15:36.819Z,19.20
2022-12-14T02:18:08.200Z,20.42
2022-12-14T02:21:08.197Z,15.15
2022-12-14T02:23:57.972Z,16.77
2022-12-14T02:26:39.366Z,18.48
2022-12-14T02:29:38.821Z,20.80
2022-12-14T02:32:23.950Z,17.65
2022-12-14T02:35:15.719Z,18.63
2022-12-14T02:37:54.472Z,13.57
2022-12-14T02:40:48.307Z,16.63
2022-12-14T02:43:58.923Z,15.45
2022-12-14T02:46:57.517Z,15.13
2022-12-14T02:49:49.164Z,17.35
2022-12-14T02:52:52.826Z,17.73
2022-12-14T02:58:05.094Z,19.13
2022-12-14T03:00:36.942Z,14.43
2022-12-14T03:03:07.490Z,17.38
2022-12-14T03:05:37.017Z,20.60
2022-12-14T03:08:16.967Z,16.13
2022-12-14T03:11:02.308Z,14.70
2022-12-14T03:13:57.244Z,15.90
2022-12-14T03:16:29.286Z,23.63
2022-12-14T03:19:19.962Z,15.10
2022-12-14T03:21:58.709Z,15.77
2022-12-14T03:24:33.909Z,22.08
2022-12-14T03:27:09.230Z,18.08
2022-12-14T03:30:01.501Z,21.45
2022-12-14T03:32:31.121Z,14.83
2022-12-14T03:35:03.300Z,15.13
2022-12-14T03:37:40.907Z,25.33
2022-12-14T03:40:10.217Z,21.25
2022-12-14T03:42:58.471Z,23.45
2022-12-14T03:45:38.197Z,31.60
2022-12-14T03:48:27.414Z,61.90
2022-12-14T03:51:18.823Z,21.08
2022-12-14T03:53:55.790Z,34.95
2022-12-14T03:56:28.473Z,46.95
2022-12-14T04:01:55.049Z,21.83
2022-12-14T04:04:56.917Z,19.60
2022-12-14T04:07:34.734Z,18.52
2022-12-14T04:10:27.033Z,18.27
2022-12-14T04:13:21.410Z,21.23
2022-12-14T04:16:09.463Z,16.92
2022-12-14T04:22:19.122Z,16.35
2022-12-14T04:25:07.888Z,25.05
2022-12-14T04:27:34.721Z,18.98
2022-12-14T04:30:03.375Z,19.08
2022-12-14T04:32:38.360Z,16.10
2022-12-14T04:35:34.928Z,16.33
2022-12-14T04:38:18.003Z,25.08
2022-12-14T04:41:03.100Z,19.50
2022-12-14T04:43:39.702Z,17.20
2022-12-14T04:46:13.193Z,23.58
2022-12-14T04:49:06.681Z,16.42
2022-12-14T04:52:03.463Z,20.27
2022-12-14T04:54:59.830Z,18.00
2022-12-14T04:57:51.380Z,18.80
2022-12-14T05:00:18.468Z,20.05
2022-12-14T05:02:48.731Z,16.70
2022-12-14T05:05:24.899Z,23.45
2022-12-14T05:07:59.917Z,21.63
2022-12-14T05:10:42.768Z,21.48
2022-12-14T05:15:45.521Z,22.58
2022-12-14T05:18:16.731Z,27.65
2022-12-14T05:20:47.174Z,29.40
2022-12-14T05:23:15.965Z,27.33
2022-12-14T05:25:42.991Z,18.90
2022-12-14T05:28:12.063Z,19.90
2022-12-14T05:30:39.420Z,26.30
2022-12-14T05:33:06.394Z,16.95
2022-12-14T05:35:34.839Z,19.92
2022-12-14T05:38:03.864Z,23.60
2022-12-14T05:40:36.577Z,18.67
2022-12-14T05:45:33.532Z,20.25
2022-12-14T05:48:00.497Z,17.42
2022-12-14T05:50:31.800Z,26.17
2022-12-14T05:52:58.567Z,22.83
2022-12-14T05:55:28.365Z,24.02
2022-12-14T05:57:57.622Z,21.38
2022-12-14T06:03:15.568Z,25.40
2022-12-14T06:05:42.229Z,26.83
2022-12-14T06:08:20.863Z,21.52
2022-12-14T06:10:48.298Z,22.23
2022-12-14T06:13:16.883Z,24.15
2022-12-14T06:15:43.661Z,23.08
2022-12-14T06:18:10.453Z,31.17
2022-12-14T06:20:37.407Z,32.10
2022-12-14T06:23:06.154Z,89.50
2022-12-14T06:25:32.950Z,74.53
2022-12-14T06:28:04.194Z,32.70
2022-12-14T06:30:31.045Z,24.08
2022-12-14T06:32:58.965Z,26.30
2022-12-14T06:35:27.958Z,26.33
2022-12-14T06:37:55.937Z,25.13
2022-12-14T06:40:28.937Z,30.80
2022-12-14T06:45:53.032Z,27.95
2022-12-14T06:48:21.581Z,28.95
2022-12-14T06:50:48.654Z,28.23
2022-12-14T06:53:17.611Z,27.10
2022-12-14T06:56:06.711Z,26.08
2022-12-14T06:58:40.842Z,29.13
2022-12-14T07:01:14.035Z,25.88
2022-12-14T07:03:41.747Z,26.67
2022-12-14T07:06:09.745Z,28.60
2022-12-14T07:08:40.090Z,27.73
2022-12-14T07:11:12.269Z,29.67
2022-12-14T07:13:41.902Z,26.52
2022-12-14T07:16:15.731Z,31.27
2022-12-14T07:18:42.906Z,27.00
2022-12-14T07:21:14.367Z,31.25
2022-12-14T07:23:42.783Z,24.45
2022-12-14T07:26:18.150Z,28.50
2022-12-14T07:28:45.780Z,27.17
2022-12-14T07:31:37.275Z,28.45
2022-12-14T07:34:06.066Z,25.60
2022-12-14T07:36:32.907Z,25.10
2022-12-14T07:39:01.916Z,25.77
2022-12-14T07:41:31.099Z,30.08
2022-12-14T07:44:03.441Z,28.63
2022-12-14T07:46:33.913Z,28.55
2022-12-14T07:49:01.648Z,33.67
2022-12-14T07:51:32.764Z,26.00
2022-12-14T07:54:00.863Z,29.77
2022-12-14T07:56:33.637Z,29.27
2022-12-14T07:59:02.527Z,32.40
2022-12-14T08:01:31.685Z,32.80
2022-12-14T08:04:07.402Z,29.98
2022-12-14T08:06:36.947Z,32.22
2022-12-14T08:09:04.438Z,28.85
2022-12-14T08:11:38.479Z,31.13
2022-12-14T08:14:08.405Z,29.98
2022-12-14T08:16:37.548Z,30.90
2022-12-14T08:19:04.207Z,29.20
2022-12-14T08:21:30.966Z,29.42
2022-12-14T08:23:58.530Z,27.38
2022-12-14T08:26:30.057Z,31.55
2022-12-14T08:29:00.403Z,31.80
2022-12-14T08:31:27.561Z,29.42
2022-12-14T08:34:00.108Z,33.35
2022-12-14T08:36:33.493Z,26.35
2022-12-14T08:39:03.302Z,33.05
2022-12-14T08:41:34.044Z,33.72
2022-12-14T08:44:02.823Z,71.07
2022-12-14T08:46:32.708Z,36.13
2022-12-14T08:48:59.602Z,55.97
2022-12-14T08:51:27.748Z,42.88
2022-12-14T08:53:55.960Z,31.05
2022-12-14T08:56:25.436Z,54.05
2022-12-14T08:58:52.735Z,33.55
2022-12-14T09:01:32.330Z,44.30
2022-12-14T09:04:05.726Z,31.33
2022-12-14T09:06:36.149Z,36.00
2022-12-14T09:09:11.948Z,27.65
2022-12-14T09:11:45.862Z,32.85
2022-12-14T09:14:13.185Z,35.47
2022-12-14T09:16:43.785Z,28.73
2022-12-14T09:19:16.497Z,27.92
2022-12-14T09:24:27.713Z,27.98
2022-12-14T09:27:01.634Z,33.28
2022-12-14T09:29:31.249Z,31.27
2022-12-14T09:32:00.106Z,33.47
2022-12-14T09:34:27.095Z,33.83
2022-12-14T09:36:55.578Z,31.27
2022-12-14T09:39:22.250Z,29.55
2022-12-14T09:42:26.452Z,31.70
2022-12-14T09:45:18.071Z,33.25
2022-12-14T09:48:17.620Z,33.45
2022-12-14T09:50:51.543Z,29.63
2022-12-14T09:53:25.530Z,29.35
2022-12-14T09:55:56.955Z,34.70
2022-12-14T09:58:32.006Z,27.40
2022-12-14T10:00:59.269Z,35.40
2022-12-14T10:03:54.204Z,34.83
2022-12-14T10:06:33.456Z,36.88
2022-12-14T10:09:20.705Z,45.17
2022-12-14T10:11:52.597Z,37.83
2022-12-14T10:14:38.414Z,34.30
2022-12-14T10:17:20.032Z,31.67
2022-12-14T10:19:54.045Z,35.63
2022-12-14T10:22:38.941Z,32.33
2022-12-14T10:25:36.644Z,37.53
2022-12-14T10:28:13.620Z,34.10
2022-12-14T10:30:47.628Z,35.25
2022-12-14T10:33:20.762Z,28.97
2022-12-14T10:36:24.659Z,28.52
2022-12-14T10:39:06.716Z,31.02
2022-12-14T10:41:40.057Z,29.23
2022-12-14T10:44:33.809Z,28.45
2022-12-14T10:47:15.385Z,36.90
2022-12-14T10:49:57.969Z,35.03
2022-12-14T10:52:35.386Z,36.17
2022-12-14T10:55:14.449Z,46.78
2022-12-14T10:57:47.906Z,40.60
2022-12-14T11:00:22.839Z,41.67
2022-12-14T11:02:55.130Z,42.17
2022-12-14T11:05:56.179Z,53.78
2022-12-14T11:08:43.808Z,48.28
2022-12-14T11:11:22.020Z,37.30
2022-12-14T11:14:07.122Z,39.90
2022-12-14T11:16:40.242Z,36.10
2022-12-14T11:19:25.052Z,47.10
2022-12-14T11:22:17.122Z,38.83
2022-12-14T11:24:47.953Z,27.15
2022-12-14T11:27:20.658Z,28.52
2022-12-14T11:32:20.501Z,32.85
2022-12-14T11:34:55.741Z,33.28
2022-12-14T11:37:30.312Z,43.35
2022-12-14T11:40:03.257Z,32.63
2022-12-14T11:42:31.264Z,27.77
2022-12-14T11:45:27.049Z,31.40
2022-12-14T11:48:30.443Z,33.70
2022-12-14T11:51:15.459Z,33.88
2022-12-14T11:53:44.581Z,30.75
2022-12-14T11:56:17.363Z,28.38
2022-12-14T12:01:27.900Z,29.27
2022-12-14T12:03:57.883Z,29.27
2022-12-14T12:06:27.448Z,32.85
2022-12-14T12:09:02.737Z,29.95
2022-12-14T12:11:32.691Z,31.83
2022-12-14T12:14:03.256Z,30.88
2022-12-14T12:16:32.347Z,31.23
2022-12-14T12:19:11.828Z,35.00
2022-12-14T12:21:44.324Z,32.47
2022-12-14T12:24:10.979Z,31.52
2022-12-14T12:27:02.413Z,32.70
2022-12-14T12:29:31.286Z,34.63
2022-12-14T12:32:07.088Z,37.35
2022-12-14T12:34:43.383Z,28.23
2022-12-14T12:37:26.284Z,34.22
2022-12-14T12:40:18.600Z,33.40
2022-12-14T12:42:50.225Z,28.52
2022-12-14T12:45:48.880Z,32.55
2022-12-14T12:48:34.200Z,38.13
2022-12-14T12:51:07.367Z,35.33
2022-12-14T12:53:39.694Z,32.70
2022-12-14T12:56:14.384Z,34.60
2022-12-14T12:58:52.938Z,36.17
2022-12-14T13:01:32.808Z,36.92
2022-12-14T13:04:27.306Z,34.65
2022-12-14T13:07:10.206Z,31.45
2022-12-14T13:12:43.132Z,34.10
2022-12-14T13:15:48.220Z,29.58
2022-12-14T13:18:57.352Z,27.27
2022-12-14T13:21:27.890Z,32.05
2022-12-14T13:23:54.855Z,32.63
2022-12-14T13:27:00.893Z,34.25
2022-12-14T13:30:12.584Z,31.73
2022-12-14T13:33:17.859Z,33.38
2022-12-14T13:36:17.455Z,28.30
2022-12-14T13:39:28.171Z,41.13
2022-12-14T13:42:09.668Z,32.00
2022-12-14T13:44:51.836Z,33.25
2022-12-14T13:47:47.889Z,28.65
2022-12-14T13:50:41.931Z,38.08
2022-12-14T13:53:15.536Z,34.03
2022-12-14T13:55:55.020Z,47.75
2022-12-14T13:58:40.762Z,37.17
2022-12-14T14:01:46.286Z,34.60
2022-12-14T14:04:15.611Z,27.13
2022-12-14T14:06:50.827Z,33.03
2022-12-14T14:09:26.094Z,35.92
2022-12-14T14:12:44.190Z,38.50
2022-12-14T14:15:34.739Z,41.53
2022-12-14T14:18:06.430Z,31.17
2022-12-14T14:21:11.548Z,33.22
2022-12-14T14:24:19.921Z,27.75
2022-12-14T14:27:23.785Z,28.58
2022-12-14T14:29:51.505Z,36.45
2022-12-14T14:32:40.576Z,34.15
2022-12-14T14:35:35.238Z,36.70
2022-12-14T14:38:38.343Z,31.27
2022-12-14T14:41:32.174Z,35.47
2022-12-14T14:44:05.184Z,32.78
2022-12-14T14:46:48.802Z,36.20
2022-12-14T14:49:29.831Z,29.52
2022-12-14T14:52:25.351Z,32.25
2022-12-14T14:55:27.762Z,32.13
2022-12-14T14:58:00.144Z,33.50
2022-12-14T15:00:28.948Z,29.67
2022-12-14T15:02:57.656Z,37.85
2022-12-14T15:05:42.707Z,40.33
2022-12-14T15:08:45.792Z,38.40
2022-12-14T15:11:22.145Z,35.35
2022-12-14T15:14:13.605Z,41.15
2022-12-14T15:16:44.864Z,38.53
2022-12-14T15:19:35.239Z,43.67
2022-12-14T15:22:18.807Z,38.90
2022-12-14T15:24:48.042Z,36.13
2022-12-14T15:27:25.319Z,35.58
2022-12-14T15:30:02.620Z,36.33
2022-12-14T15:32:34.444Z,34.15
2022-12-14T15:35:30.387Z,34.22
2022-12-14T15:38:01.867Z,38.28
2022-12-14T15:40:33.896Z,34.35
2022-12-14T15:43:14.766Z,33.80
2022-12-14T15:45:43.356Z,32.83
2022-12-14T15:48:31.029Z,36.45
2022-12-14T15:51:03.216Z,36.20
2022-12-14T15:53:53.880Z,36.90
2022-12-14T15:56:39.354Z,34.47
2022-12-14T15:59:16.942Z,38.55
2022-12-14T16:01:55.834Z,34.03
2022-12-14T16:04:28.450Z,30.98
2022-12-14T16:07:09.836Z,31.33
2022-12-14T16:09:50.022Z,31.63
2022-12-14T16:12:33.544Z,32.38
2022-12-14T16:15:02.388Z,29.80
2022-12-14T16:17:50.187Z,33.25
2022-12-14T16:20:20.144Z,28.55
2022-12-14T16:23:01.115Z,35.25
2022-12-14T16:26:02.072Z,33.47
2022-12-14T16:28:31.087Z,34.25
2022-12-14T16:31:19.743Z,31.95
2022-12-14T16:34:10.816Z,36.78
2022-12-14T16:36:37.808Z,33.20
2022-12-14T16:39:22.904Z,34.03
2022-12-14T16:44:48.127Z,33.65
2022-12-14T16:50:54.968Z,34.22
2022-12-14T17:02:37.400Z,33.03
2022-12-14T17:17:03.598Z,36.38
2022-12-14T17:19:47.393Z,37.45
2022-12-14T17:22:30.855Z,37.85
2022-12-14T17:25:02.856Z,33.95
2022-12-14T17:28:20.038Z,31.60
2022-12-14T17:39:24.342Z,36.42
2022-12-14T17:42:01.740Z,34.53
2022-12-14T17:47:34.697Z,30.60
2022-12-14T17:50:15.640Z,36.85
2022-12-14T17:52:49.621Z,43.22
2022-12-14T17:55:28.182Z,32.90
2022-12-14T17:57:57.300Z,30.52
2022-12-14T18:03:50.773Z,37.38
2022-12-14T18:06:20.262Z,40.28
2022-12-14T18:08:54.231Z,33.50
2022-12-14T18:11:31.019Z,33.40
2022-12-14T18:14:04.040Z,34.00
2022-12-14T18:17:04.404Z,32.58
2022-12-14T18:19:35.466Z,43.92
2022-12-14T18:22:07.339Z,29.88
2022-12-14T18:24:37.825Z,46.33
2022-12-14T18:27:06.684Z,39.10
2022-12-14T18:29:39.031Z,38.45
2022-12-14T18:32:05.962Z,40.13
2022-12-14T18:34:32.717Z,36.30
2022-12-14T18:37:01.108Z,44.20
2022-12-14T18:39:30.791Z,45.30
2022-12-14T18:42:02.208Z,33.97
2022-12-14T18:44:34.785Z,33.00
2022-12-14T18:47:20.465Z,28.33
2022-12-14T18:50:01.288Z,28.05
2022-12-14T18:52:28.089Z,32.75
2022-12-14T18:55:25.493Z,41.72
2022-12-14T18:58:19.830Z,27.73
2022-12-14T19:01:00.400Z,27.90
2022-12-14T19:03:31.974Z,29.52
2022-12-14T19:08:53.998Z,30.58
2022-12-14T19:11:38.707Z,28.30
2022-12-14T19:14:11.077Z,34.92
2022-12-14T19:16:40.376Z,37.22
2022-12-14T19:19:07.116Z,32.47
2022-12-14T19:21:33.753Z,28.85
2022-12-14T19:24:08.814Z,32.55
2022-12-14T19:26:41.024Z,39.33
2022-12-14T19:29:10.009Z,31.00
2022-12-14T19:31:37.047Z,47.47
2022-12-14T19:34:04.170Z,43.08
2022-12-14T19:36:41.120Z,33.50
2022-12-14T19:39:08.177Z,32.40
2022-12-14T19:41:37.902Z,32.85
2022-12-14T19:44:26.802Z,31.67
2022-12-14T19:47:02.965Z,32.15
2022-12-14T19:49:35.035Z,32.28
2022-12-14T19:52:01.802Z,27.80
2022-12-14T19:54:34.083Z,27.77
2022-12-14T19:57:02.897Z,27.50
2022-12-14T19:59:29.596Z,26.05
2022-12-14T20:02:01.054Z,26.00
2022-12-14T20:04:30.772Z,28.75
2022-12-14T20:06:57.739Z,32.05
2022-12-14T20:09:27.040Z,30.65
2022-12-14T20:12:02.996Z,33.50
2022-12-14T20:14:29.802Z,32.65
2022-12-14T20:16:57.818Z,41.70
2022-12-14T20:19:30.982Z,39.20
2022-12-14T20:21:58.013Z,37.28
2022-12-14T20:24:28.107Z,36.42
2022-12-14T20:27:00.020Z,27.85
2022-12-14T20:29:26.906Z,38.05
2022-12-14T20:31:55.039Z,30.73
2022-12-14T20:34:24.607Z,29.63
2022-12-14T20:36:54.829Z,31.42
2022-12-14T20:39:21.718Z,26.13
2022-12-14T20:41:52.613Z,32.30
2022-12-14T20:44:19.434Z,26.05
2022-12-14T20:46:50.952Z,30.83
2022-12-14T20:49:20.343Z,28.55
2022-12-14T20:51:49.716Z,21.05
2022-12-14T20:54:18.967Z,30.33
2022-12-14T20:56:49.149Z,34.90
2022-12-14T20:59:16.706Z,36.97
2022-12-14T21:01:43.981Z,30.85
2022-12-14T21:04:12.954Z,30.65
2022-12-14T21:06:42.873Z,35.28
2022-12-14T21:09:14.440Z,29.10
2022-12-14T21:12:12.198Z,36.47
2022-12-14T21:14:46.246Z,27.63
2022-12-14T21:17:21.113Z,29.88
2022-12-14T21:19:48.103Z,26.13
2022-12-14T21:22:20.470Z,33.10
2022-12-14T21:25:05.292Z,27.23
2022-12-14T21:27:37.899Z,28.15
2022-12-14T21:30:08.765Z,29.88
2022-12-14T21:32:37.288Z,25.55
2022-12-14T21:35:05.927Z,26.00
2022-12-14T21:37:37.137Z,26.73
2022-12-14T21:40:04.813Z,29.77
2022-12-14T21:42:31.880Z,29.17
2022-12-14T21:45:01.897Z,30.92
2022-12-14T21:47:53.661Z,29.35
2022-12-14T21:50:20.455Z,29.10
2022-12-14T21:52:47.112Z,25.83
2022-12-14T21:55:26.367Z,29.67
2022-12-14T21:58:12.505Z,25.90
2022-12-14T22:00:42.548Z,34.58
2022-12-14T22:03:09.471Z,30.15
2022-12-14T22:05:43.260Z,36.08
2022-12-14T22:08:09.996Z,30.20
2022-12-14T22:10:37.788Z,24.85
2022-12-14T22:13:05.783Z,26.48
2022-12-14T22:15:35.463Z,26.27
2022-12-14T22:18:02.448Z,27.10
2022-12-14T22:20:30.027Z,30.25
2022-12-14T22:23:01.081Z,30.17
2022-12-14T22:25:28.885Z,24.35
2022-12-14T22:27:59.103Z,25.23
2022-12-14T22:30:31.426Z,26.02
2022-12-14T22:33:07.463Z,37.63
2022-12-14T22:35:34.986Z,29.55
2022-12-14T22:38:05.239Z,27.60
2022-12-14T22:40:32.575Z,34.05
2022-12-14T22:42:59.492Z,30.52
2022-12-14T22:45:30.046Z,28.85
2022-12-14T22:47:56.772Z,39.35
2022-12-14T22:50:28.049Z,40.80
2022-12-14T22:52:57.289Z,39.90
2022-12-14T22:55:29.825Z,31.55
2022-12-14T22:57:58.839Z,33.70
2022-12-14T23:00:27.800Z,35.38
2022-12-14T23:02:54.619Z,35.47
2022-12-14T23:05:22.452Z,57.65
2022-12-14T23:07:49.284Z,130.23
2022-12-14T23:10:37.647Z,78.13
2022-12-14T23:13:23.219Z,38.85
2022-12-14T23:16:13.719Z,32.05
2022-12-14T23:19:01.102Z,37.15
2022-12-14T23:21:46.580Z,25.88
2022-12-14T23:24:36.131Z,24.55
2022-12-14T23:27:24.391Z,19.20
2022-12-14T23:30:10.167Z,27.95
2022-12-14T23:32:56.763Z,25.77
2022-12-14T23:35:42.435Z,27.33
2022-12-14T23:38:28.110Z,25.50
2022-12-14T23:41:36.275Z,24.33
2022-12-14T23:44:23.710Z,26.67
2022-12-14T23:47:11.885Z,44.80
2022-12-14T23:49:57.139Z,28.52
2022-12-14T23:52:44.639Z,29.65
2022-12-14T23:55:36.399Z,53.75
2022-12-14T23:58:22.716Z,39.75
